createdAt,value
2019-04-06T00:00:54.344Z,63.80
2019-04-06T00:03:24.718Z,64.00
2019-04-06T00:05:55.146Z,64.10
2019-04-06T00:08:25.462Z,64.20
2019-04-06T00:10:55.846Z,64.40
2019-04-06T00:13:26.241Z,65.40
2019-04-06T00:15:56.598Z,64.60
2019-04-06T00:18:26.979Z,64.80
2019-04-06T00:20:57.320Z,65.00
2019-04-06T00:23:28.797Z,65.00
2019-04-06T00:25:59.196Z,65.20
2019-04-06T00:28:29.714Z,65.30
2019-04-06T00:31:09.321Z,65.60
2019-04-06T00:33:39.747Z,65.90
2019-04-06T00:36:10.191Z,65.80
2019-04-06T00:38:40.517Z,66.10
2019-04-06T00:41:12.234Z,66.20
2019-04-06T00:43:42.876Z,66.30
2019-04-06T00:46:13.259Z,66.40
2019-04-06T00:48:43.610Z,66.60
2019-04-06T00:51:14.035Z,66.70
2019-04-06T00:53:44.373Z,66.90
2019-04-06T00:56:15.025Z,67.10
2019-04-06T00:58:45.358Z,67.20
2019-04-06T01:01:15.791Z,67.60
2019-04-06T01:03:46.174Z,67.60
2019-04-06T01:06:16.567Z,67.80
2019-04-06T01:08:46.958Z,67.80
2019-04-06T01:11:17.406Z,68.10
2019-04-06T01:13:47.718Z,68.10
2019-04-06T01:16:18.090Z,68.40
2019-04-06T01:18:48.498Z,68.50
2019-04-06T01:21:18.885Z,68.70
2019-04-06T01:23:49.339Z,69.00
2019-04-06T01:26:19.772Z,69.20
2019-04-06T01:28:50.467Z,69.30
2019-04-06T01:31:20.898Z,69.50
2019-04-06T01:33:51.354Z,69.70
2019-04-06T01:36:21.707Z,69.70
2019-04-06T01:38:52.235Z,70.20
2019-04-06T01:41:22.624Z,70.90
2019-04-06T01:43:53.236Z,70.40
2019-04-06T01:46:23.629Z,70.50
2019-04-06T01:48:54.001Z,70.90
2019-04-06T01:51:24.571Z,71.20
2019-04-06T01:53:55.140Z,71.30
2019-04-06T01:56:25.918Z,71.60
2019-04-06T01:58:56.251Z,71.70
2019-04-06T02:01:45.601Z,72.00
2019-04-06T02:04:16.038Z,72.20
2019-04-06T02:06:46.505Z,72.40
2019-04-06T02:09:16.851Z,72.40
2019-04-06T02:11:47.432Z,72.70
2019-04-06T02:14:17.831Z,73.00
2019-04-06T02:16:48.239Z,73.00
2019-04-06T02:19:18.852Z,73.40
2019-04-06T02:21:49.241Z,73.60
2019-04-06T02:24:19.647Z,73.60
2019-04-06T02:26:50.035Z,73.90
2019-04-06T02:29:20.361Z,74.30
2019-04-06T02:32:05.459Z,74.30
2019-04-06T02:34:51.632Z,74.60
2019-04-06T02:37:33.322Z,74.70
2019-04-06T02:40:28.972Z,75.00
2019-04-06T02:43:15.691Z,75.20
2019-04-06T02:45:46.061Z,75.30
2019-04-06T02:48:16.512Z,75.60
2019-04-06T02:50:46.901Z,75.90
2019-04-06T02:53:17.272Z,76.20
2019-04-06T02:55:47.701Z,76.30
2019-04-06T02:58:18.251Z,76.30
2019-04-06T03:00:48.880Z,76.50
2019-04-06T03:03:19.269Z,76.70
2019-04-06T03:05:49.625Z,77.60
2019-04-06T03:08:20.001Z,77.20
2019-04-06T03:10:50.385Z,77.40
2019-04-06T03:13:20.779Z,78.30
2019-04-06T03:15:51.159Z,77.90
2019-04-06T03:18:21.530Z,78.10
2019-04-06T03:20:51.918Z,78.40
2019-04-06T03:23:24.661Z,78.50
2019-04-06T03:25:54.476Z,78.70
2019-04-06T03:28:24.916Z,78.90
2019-04-06T03:30:55.561Z,79.20
2019-04-06T03:33:26.050Z,79.40
2019-04-06T03:35:56.746Z,79.60
2019-04-06T03:38:27.449Z,80.20
2019-04-06T03:40:57.768Z,80.10
2019-04-06T03:43:28.141Z,80.60
2019-04-06T03:45:58.521Z,80.80
2019-04-06T03:48:29.011Z,81.40
2019-04-06T03:50:59.377Z,82.60
2019-04-06T03:53:29.803Z,83.20
2019-04-06T03:56:00.166Z,83.60
2019-04-06T03:58:30.485Z,84.30
2019-04-06T04:01:01.174Z,84.30
2019-04-06T04:03:31.598Z,84.70
2019-04-06T04:06:02.106Z,85.00
2019-04-06T04:08:32.362Z,85.00
2019-04-06T04:11:02.768Z,85.60
2019-04-06T04:13:33.113Z,85.40
2019-04-06T04:16:03.636Z,85.70
2019-04-06T04:18:34.004Z,85.50
2019-04-06T04:21:04.468Z,85.50
2019-04-06T04:23:34.800Z,85.90
2019-04-06T04:26:05.607Z,85.80
2019-04-06T04:28:36.264Z,85.90
2019-04-06T04:31:06.660Z,85.70
2019-04-06T04:33:37.250Z,85.60
2019-04-06T04:36:07.839Z,85.80
2019-04-06T04:38:38.230Z,85.70
2019-04-06T04:41:08.783Z,85.60
2019-04-06T04:43:39.243Z,85.90
2019-04-06T04:46:09.729Z,85.70
2019-04-06T04:48:40.396Z,85.40
2019-04-06T04:51:10.739Z,85.20
2019-04-06T04:53:41.204Z,85.00
2019-04-06T04:56:11.575Z,84.60
2019-04-06T04:58:42.169Z,84.40
2019-04-06T05:01:12.720Z,84.00
2019-04-06T05:03:43.340Z,83.60
2019-04-06T05:06:13.767Z,83.20
2019-04-06T05:08:46.121Z,82.60
2019-04-06T05:11:16.844Z,82.60
2019-04-06T05:13:47.239Z,81.80
2019-04-06T05:16:17.709Z,81.40
2019-04-06T05:18:49.025Z,81.00
2019-04-06T05:21:19.518Z,80.20
2019-04-06T05:23:50.153Z,79.70
2019-04-06T05:26:20.608Z,79.00
2019-04-06T05:28:51.382Z,78.00
2019-04-06T05:31:21.715Z,77.60
2019-04-06T05:33:52.222Z,77.40
2019-04-06T05:36:22.959Z,76.80
2019-04-06T05:38:53.437Z,76.00
2019-04-06T05:41:23.742Z,76.00
2019-04-06T05:43:54.282Z,75.60
2019-04-06T05:46:25.809Z,75.20
2019-04-06T05:48:56.382Z,74.40
2019-04-06T05:51:26.931Z,74.10
2019-04-06T05:53:57.339Z,74.10
2019-04-06T05:56:27.795Z,74.70
2019-04-06T05:58:58.147Z,73.80
2019-04-06T06:01:28.675Z,73.40
2019-04-06T06:03:59.333Z,72.90
2019-04-06T06:06:29.890Z,72.20
2019-04-06T06:09:00.288Z,71.80
2019-04-06T06:11:31.010Z,71.00
2019-04-06T06:14:01.395Z,71.30
2019-04-06T06:16:31.795Z,70.90
2019-04-06T06:19:02.119Z,70.90
2019-04-06T06:21:32.533Z,69.60
2019-04-06T06:24:02.959Z,68.80
2019-04-06T06:26:33.305Z,69.00
2019-04-06T06:29:03.628Z,68.90
2019-04-06T06:31:34.035Z,69.10
2019-04-06T06:34:04.615Z,68.90
2019-04-06T06:36:35.055Z,68.20
2019-04-06T06:39:08.301Z,67.30
2019-04-06T06:41:38.740Z,67.60
2019-04-06T06:44:09.603Z,67.30
2019-04-06T06:46:40.023Z,66.90
2019-04-06T06:49:10.373Z,67.20
2019-04-06T06:51:40.723Z,66.50
2019-04-06T06:54:11.135Z,65.10
2019-04-06T06:56:41.576Z,64.70
2019-04-06T06:59:11.980Z,65.00
2019-04-06T07:01:42.373Z,65.00
2019-04-06T07:04:13.707Z,64.40
2019-04-06T07:06:44.102Z,65.40
2019-04-06T07:09:14.415Z,66.20
2019-04-06T07:11:44.827Z,66.40
2019-04-06T07:14:15.230Z,66.10
2019-04-06T07:16:45.725Z,66.10
2019-04-06T07:19:16.127Z,65.50
2019-04-06T07:21:46.471Z,64.60
2019-04-06T07:24:16.884Z,64.50
2019-04-06T07:26:47.272Z,63.70
2019-04-06T07:29:17.711Z,62.30
2019-04-06T07:31:48.167Z,62.00
2019-04-06T07:34:18.540Z,61.30
2019-04-06T07:36:49.514Z,61.10
2019-04-06T07:39:19.864Z,62.40
2019-04-06T07:41:50.705Z,62.70
2019-04-06T07:44:21.060Z,63.10
2019-04-06T07:46:51.704Z,63.20
2019-04-06T07:49:22.369Z,62.70
2019-04-06T07:51:52.771Z,62.10
2019-04-06T07:54:23.173Z,61.00
2019-04-06T07:56:53.580Z,61.70
2019-04-06T07:59:24.052Z,61.90
2019-04-06T08:01:54.499Z,61.40
2019-04-06T08:04:24.878Z,61.80
2019-04-06T08:06:55.228Z,62.20
2019-04-06T08:09:25.550Z,62.20
2019-04-06T08:11:55.940Z,61.80
2019-04-06T08:14:26.337Z,61.00
2019-04-06T08:16:56.730Z,59.40
2019-04-06T08:19:27.176Z,59.10
2019-04-06T08:21:57.567Z,58.80
2019-04-06T08:24:28.279Z,58.80
2019-04-06T08:26:59.520Z,58.60
2019-04-06T08:29:30.140Z,58.40
2019-04-06T08:32:00.508Z,57.60
2019-04-06T08:34:30.836Z,57.80
2019-04-06T08:37:01.291Z,57.80
2019-04-06T08:39:31.646Z,57.50
2019-04-06T08:42:02.170Z,57.50
2019-04-06T08:44:32.606Z,57.00
2019-04-06T08:47:03.277Z,57.30
2019-04-06T08:49:33.701Z,56.90
2019-04-06T08:52:04.325Z,57.20
2019-04-06T08:54:34.660Z,57.60
2019-04-06T08:57:05.358Z,57.80
2019-04-06T08:59:35.841Z,57.50
2019-04-06T09:02:06.409Z,57.10
2019-04-06T09:04:36.759Z,56.50
2019-04-06T09:07:07.220Z,56.50
2019-04-06T09:09:37.751Z,55.70
2019-04-06T09:12:08.090Z,55.70
2019-04-06T09:14:38.491Z,55.40
2019-04-06T09:17:08.841Z,55.00
2019-04-06T09:19:40.390Z,54.50
2019-04-06T09:22:10.820Z,54.60
2019-04-06T09:24:41.254Z,54.00
2019-04-06T09:27:11.593Z,54.00
2019-04-06T09:29:43.265Z,52.80
2019-04-06T09:32:13.700Z,53.10
2019-04-06T09:34:44.292Z,53.00
2019-04-06T09:37:14.922Z,53.20
2019-04-06T09:39:46.328Z,53.00
2019-04-06T09:42:17.031Z,52.50
2019-04-06T09:45:10.628Z,52.60
2019-04-06T09:47:50.086Z,52.90
2019-04-06T09:50:42.166Z,52.90
2019-04-06T09:53:46.808Z,52.60
2019-04-06T09:56:32.590Z,52.10
2019-04-06T09:59:20.598Z,51.90
2019-04-06T10:02:07.941Z,52.00
2019-04-06T10:05:00.296Z,52.10
2019-04-06T10:07:55.219Z,51.70
2019-04-06T10:10:44.525Z,50.70
2019-04-06T10:13:25.393Z,50.80
2019-04-06T10:16:14.992Z,50.80
2019-04-06T10:19:10.917Z,50.90
2019-04-06T10:21:58.771Z,50.80
2019-04-06T10:24:51.115Z,51.20
2019-04-06T10:27:40.376Z,50.20
2019-04-06T10:30:42.575Z,50.40
2019-04-06T10:33:34.821Z,50.10
2019-04-06T10:36:34.286Z,49.90
2019-04-06T10:39:26.830Z,49.60
2019-04-06T10:42:10.457Z,49.90
2019-04-06T10:45:14.912Z,49.50
2019-04-06T10:47:54.896Z,49.50
2019-04-06T10:50:47.099Z,50.30
2019-04-06T10:53:35.827Z,50.20
2019-04-06T10:56:28.533Z,49.60
2019-04-06T10:59:36.300Z,49.00
2019-04-06T11:02:23.823Z,49.10
2019-04-06T11:05:25.307Z,48.30
2019-04-06T11:08:23.762Z,48.10
2019-04-06T11:11:08.335Z,48.70
2019-04-06T11:13:47.613Z,49.30
2019-04-06T11:16:35.420Z,49.90
2019-04-06T11:19:36.818Z,49.30
2019-04-06T11:22:19.643Z,49.20
2019-04-06T11:25:24.018Z,48.90
2019-04-06T11:28:17.516Z,49.40
2019-04-06T11:31:13.239Z,50.20
2019-04-06T11:34:01.522Z,51.00
2019-04-06T11:36:42.242Z,50.10
2019-04-06T11:39:34.678Z,49.40
2019-04-06T11:42:23.988Z,49.20
2019-04-06T11:45:19.100Z,49.20
2019-04-06T11:48:07.185Z,49.30
2019-04-06T11:51:10.145Z,49.40
2019-04-06T11:54:08.496Z,49.70
2019-04-06T11:56:47.544Z,49.30
2019-04-06T11:59:31.567Z,49.30
2019-04-06T12:02:32.904Z,48.80
2019-04-06T12:05:21.156Z,48.60
2019-04-06T12:08:16.860Z,49.00
2019-04-06T12:11:06.342Z,49.00
2019-04-06T12:13:54.543Z,49.10
2019-04-06T12:16:33.227Z,49.60
2019-04-06T12:19:23.123Z,50.10
2019-04-06T12:22:21.581Z,50.20
2019-04-06T12:25:09.657Z,50.80
2019-04-06T12:27:59.020Z,50.60
2019-04-06T12:30:48.484Z,50.40
2019-04-06T12:33:40.953Z,50.50
2019-04-06T12:36:25.139Z,50.80
2019-04-06T12:39:14.400Z,51.00
2019-04-06T12:41:55.198Z,50.80
2019-04-06T12:44:44.581Z,51.30
2019-04-06T12:47:25.999Z,52.00
2019-04-06T12:50:24.667Z,52.20
2019-04-06T12:53:14.743Z,53.00
2019-04-06T12:55:56.567Z,53.40
2019-04-06T12:58:46.342Z,53.60
2019-04-06T13:01:30.733Z,53.60
2019-04-06T13:04:20.060Z,53.70
2019-04-06T13:07:04.023Z,54.00
2019-04-06T13:09:56.467Z,54.70
2019-04-06T13:12:45.051Z,54.30
2019-04-06T13:15:21.626Z,54.40
2019-04-06T13:18:08.463Z,54.20
2019-04-06T13:21:01.084Z,54.20
2019-04-06T13:23:53.599Z,54.00
2019-04-06T13:26:52.417Z,54.20
2019-04-06T13:29:56.770Z,54.20
2019-04-06T13:32:44.704Z,53.90
2019-04-06T13:35:34.001Z,53.80
2019-04-06T13:38:32.421Z,54.10
2019-04-06T13:41:24.635Z,53.90
2019-04-06T13:44:33.710Z,53.60
2019-04-06T13:47:14.576Z,54.10
2019-04-06T13:50:07.966Z,54.00
2019-04-06T13:52:55.917Z,54.00
2019-04-06T13:56:03.534Z,54.00
2019-04-06T13:58:51.700Z,53.90
2019-04-06T14:01:46.478Z,53.60
2019-04-06T14:04:42.063Z,52.90
2019-04-06T14:07:34.788Z,53.20
2019-04-06T14:10:31.449Z,53.20
2019-04-06T14:13:15.929Z,53.20
2019-04-06T14:15:59.129Z,53.10
2019-04-06T14:18:47.492Z,53.20
2019-04-06T14:21:37.441Z,52.90
2019-04-06T14:24:25.650Z,53.50
2019-04-06T14:27:27.436Z,52.60
2019-04-06T14:30:16.938Z,51.90
2019-04-06T14:33:05.209Z,51.60
2019-04-06T14:36:09.954Z,52.00
2019-04-06T14:38:50.143Z,52.50
2019-04-06T14:41:34.254Z,52.60
2019-04-06T14:44:29.732Z,52.70
2019-04-06T14:47:28.316Z,52.70
2019-04-06T14:50:19.130Z,53.10
2019-04-06T14:53:17.660Z,53.10
2019-04-06T14:56:07.117Z,53.10
2019-04-06T14:58:45.484Z,53.00
2019-04-06T15:01:41.514Z,53.10
2019-04-06T15:04:13.531Z,53.20
2019-04-06T15:07:13.179Z,52.70
2019-04-06T15:10:05.392Z,52.50
2019-04-06T15:12:44.641Z,52.60
2019-04-06T15:15:37.205Z,52.50
2019-04-06T15:18:20.772Z,52.50
2019-04-06T15:21:14.663Z,52.70
2019-04-06T15:24:04.209Z,52.80
2019-04-06T15:26:56.922Z,52.80
2019-04-06T15:29:40.159Z,52.80
2019-04-06T15:32:28.308Z,52.80
2019-04-06T15:35:07.363Z,52.70
2019-04-06T15:37:50.031Z,52.20
2019-04-06T15:40:48.610Z,52.10
2019-04-06T15:43:33.923Z,52.50
2019-04-06T15:46:19.363Z,52.90
2019-04-06T15:49:07.448Z,52.30
2019-04-06T15:52:11.881Z,52.20
2019-04-06T15:54:43.787Z,52.30
2019-04-06T15:57:19.239Z,52.10
2019-04-06T16:00:04.194Z,52.20
2019-04-06T16:02:48.648Z,52.40
2019-04-06T16:05:40.985Z,52.40
2019-04-06T16:08:39.647Z,52.40
2019-04-06T16:11:19.754Z,52.50
2019-04-06T16:14:12.269Z,52.50
2019-04-06T16:16:49.974Z,52.70
2019-04-06T16:19:42.675Z,52.80
2019-04-06T16:22:35.548Z,52.90
2019-04-06T16:25:27.189Z,53.00
2019-04-06T16:28:12.046Z,52.90
2019-04-06T16:31:02.192Z,53.10
2019-04-06T16:33:57.883Z,53.20
2019-04-06T16:36:45.613Z,53.30
2019-04-06T16:39:30.103Z,53.10
2019-04-06T16:42:17.665Z,53.20
2019-04-06T16:45:07.314Z,53.40
2019-04-06T16:48:00.086Z,53.50
2019-04-06T16:50:38.425Z,53.60
2019-04-06T16:53:43.762Z,53.50
2019-04-06T16:56:28.050Z,53.50
2019-04-06T16:59:26.769Z,53.70
2019-04-06T17:02:22.901Z,53.90
2019-04-06T17:05:15.687Z,54.00
2019-04-06T17:08:12.424Z,54.00
2019-04-06T17:11:06.930Z,54.00
2019-04-06T17:13:54.902Z,53.90
2019-04-06T17:16:35.331Z,53.80
2019-04-06T17:19:14.364Z,53.70
2019-04-06T17:21:51.032Z,53.70
2019-04-06T17:24:40.343Z,53.90
2019-04-06T17:27:28.939Z,53.90
2019-04-06T17:30:07.909Z,53.70
2019-04-06T17:32:57.338Z,53.80
2019-04-06T17:35:36.128Z,53.90
2019-04-06T17:38:31.981Z,53.80
2019-04-06T17:41:30.933Z,54.00
2019-04-06T17:44:19.018Z,54.20
2019-04-06T17:47:01.910Z,54.30
2019-04-06T17:49:57.442Z,54.50
2019-04-06T17:52:50.235Z,54.50
2019-04-06T17:55:38.037Z,54.70
2019-04-06T17:58:33.650Z,54.90
2019-04-06T18:01:26.480Z,55.10
2019-04-06T18:04:28.141Z,55.10
2019-04-06T18:07:16.838Z,55.30
2019-04-06T18:10:04.998Z,55.50
2019-04-06T18:12:50.922Z,55.60
2019-04-06T18:15:21.464Z,55.80
2019-04-06T18:17:51.846Z,55.80
2019-04-06T18:20:22.241Z,56.00
2019-04-06T18:22:52.652Z,56.00
2019-04-06T18:25:23.433Z,56.10
2019-04-06T18:27:55.013Z,56.20
2019-04-06T18:30:25.971Z,56.50
2019-04-06T18:33:09.413Z,56.40
2019-04-06T18:35:39.917Z,56.40
2019-04-06T18:38:30.176Z,56.60
2019-04-06T18:41:00.614Z,57.30
2019-04-06T18:43:30.940Z,56.80
2019-04-06T18:46:01.704Z,56.90
2019-04-06T18:48:32.074Z,57.00
2019-04-06T18:51:03.662Z,57.20
2019-04-06T18:53:34.325Z,57.50
2019-04-06T18:56:05.654Z,57.60
2019-04-06T18:58:36.537Z,58.30
2019-04-06T19:01:07.343Z,57.80
2019-04-06T19:03:37.836Z,58.00
2019-04-06T19:06:08.306Z,58.00
2019-04-06T19:08:39.154Z,58.40
2019-04-06T19:11:09.928Z,58.30
2019-04-06T19:13:40.708Z,58.40
2019-04-06T19:16:11.647Z,58.60
2019-04-06T19:18:41.972Z,58.60
2019-04-06T19:21:12.775Z,58.80
2019-04-06T19:23:43.505Z,58.90
2019-04-06T19:26:14.060Z,59.00
2019-04-06T19:28:44.694Z,59.20
2019-04-06T19:31:15.705Z,59.20
2019-04-06T19:33:46.531Z,59.50
2019-04-06T19:36:16.886Z,59.50
2019-04-06T19:38:47.572Z,60.20
2019-04-06T19:41:17.962Z,59.80
2019-04-06T19:43:48.303Z,60.00
2019-04-06T19:46:19.023Z,60.20
2019-04-06T19:48:49.561Z,60.40
2019-04-06T19:51:20.652Z,60.50
2019-04-06T19:53:51.231Z,60.90
2019-04-06T19:56:21.641Z,61.00
2019-04-06T19:58:52.387Z,61.30
2019-04-06T20:01:22.976Z,61.60
2019-04-06T20:03:53.359Z,61.50
2019-04-06T20:06:23.830Z,61.80
2019-04-06T20:08:55.003Z,62.10
2019-04-06T20:11:25.662Z,62.50
2019-04-06T20:13:56.219Z,62.60
2019-04-06T20:16:27.524Z,63.00
2019-04-06T20:18:57.993Z,63.20
2019-04-06T20:21:28.331Z,63.40
2019-04-06T20:23:59.211Z,63.50
2019-04-06T20:26:31.663Z,63.90
2019-04-06T20:29:02.444Z,63.90
2019-04-06T20:31:33.096Z,64.30
2019-04-06T20:34:03.481Z,64.60
2019-04-06T20:36:35.471Z,64.90
2019-04-06T20:39:08.695Z,65.10
2019-04-06T20:41:40.387Z,65.40
2019-04-06T20:44:10.837Z,65.60
2019-04-06T20:46:41.616Z,65.70
2019-04-06T20:49:12.001Z,66.00
2019-04-06T20:51:42.567Z,66.30
2019-04-06T20:54:12.988Z,66.40
2019-04-06T20:56:53.230Z,66.50
2019-04-06T20:59:16.661Z,66.80
2019-04-06T21:01:47.437Z,67.00
2019-04-06T21:04:17.898Z,67.20
2019-04-06T21:06:48.258Z,67.40
2019-04-06T21:09:19.249Z,68.00
2019-04-06T21:11:49.657Z,68.20
2019-04-06T21:14:20.508Z,68.20
2019-04-06T21:16:51.231Z,68.50
2019-04-06T21:19:21.729Z,68.40
2019-04-06T21:21:52.148Z,68.80
2019-04-06T21:24:22.529Z,69.10
2019-04-06T21:26:53.509Z,69.10
2019-04-06T21:29:24.269Z,69.40
2019-04-06T21:31:55.222Z,69.50
2019-04-06T21:34:26.070Z,69.50
2019-04-06T21:36:56.646Z,70.50
2019-04-06T21:39:27.885Z,69.60
2019-04-06T21:41:58.426Z,69.80
2019-04-06T21:44:28.704Z,69.70
2019-04-06T21:46:59.114Z,69.70
2019-04-06T21:49:29.555Z,69.80
2019-04-06T21:51:59.990Z,69.90
2019-04-06T21:54:30.782Z,69.90
2019-04-06T21:57:01.219Z,70.00
2019-04-06T21:59:31.629Z,70.00
2019-04-06T22:02:02.413Z,69.90
2019-04-06T22:04:33.736Z,70.00
2019-04-06T22:07:04.337Z,70.30
2019-04-06T22:09:34.819Z,70.60
2019-04-06T22:12:06.071Z,70.80
2019-04-06T22:14:36.660Z,70.90
2019-04-06T22:17:07.595Z,70.90
2019-04-06T22:19:38.250Z,71.30
2019-04-06T22:22:08.939Z,71.30
2019-04-06T22:24:39.504Z,71.70
2019-04-06T22:27:09.782Z,71.80
2019-04-06T22:29:41.636Z,72.00
2019-04-06T22:32:12.285Z,72.00
2019-04-06T22:34:44.272Z,72.40
2019-04-06T22:37:15.022Z,72.40
2019-04-06T22:39:45.954Z,72.50
2019-04-06T22:42:16.463Z,72.80
2019-04-06T22:44:46.897Z,73.10
2019-04-06T22:47:17.259Z,73.00
2019-04-06T22:49:48.140Z,73.40
2019-04-06T22:52:18.665Z,73.30
2019-04-06T22:54:50.298Z,73.40
2019-04-06T22:57:21.224Z,73.50
2019-04-06T22:59:51.996Z,73.50
2019-04-06T23:02:22.630Z,73.50
2019-04-06T23:05:03.884Z,73.70
2019-04-06T23:07:34.835Z,74.00
2019-04-06T23:10:06.194Z,74.20
2019-04-06T23:12:37.011Z,74.20
2019-04-06T23:15:08.296Z,74.50
2019-04-06T23:17:39.450Z,74.80
2019-04-06T23:20:10.499Z,74.90
2019-04-06T23:22:41.177Z,75.00
2019-04-06T23:25:11.803Z,75.70
2019-04-06T23:27:42.276Z,75.60
2019-04-06T23:30:13.190Z,75.80
2019-04-06T23:32:43.697Z,76.60
2019-04-06T23:35:14.078Z,76.80
2019-04-06T23:37:44.791Z,77.40
2019-04-06T23:40:15.391Z,77.50
2019-04-06T23:42:45.893Z,78.10
2019-04-06T23:45:16.386Z,79.00
2019-04-06T23:47:46.939Z,79.00
2019-04-06T23:50:17.862Z,79.50
2019-04-06T23:52:48.662Z,80.20
2019-04-06T23:55:18.992Z,80.60
2019-04-06T23:57:49.438Z,80.80
